Terminal Aerodrome Forecast
Issued by NWS

Home | Current Version | Previous Version | Text Only | Print | Product List | Glossary Off
Versions: 1 2 3 4 5 6 7 8 9 10 11 12 13 14 15 16

000
FTUS45 KGGW 292000 AAA
TAFSDY
TAF AMD
KSDY 292002Z 2920/3018 27015G25KT P6SM SCT080
     FM300300 VRB06KT P6SM FEW090
      AMD LTD TO CLD VIS AND WIND=

USA.gov is the U.S. government's official web portal to all federal, state and local government web resources and services.